sensor_id;sensor_type;location;lat;lon;timestamp;P1;durP1;ratioP1;P2;durP2;ratioP2
4375;SDS011;2202;50.866;12.750;2022-11-22T00:01:50;27.00;;;16.27;;
4375;SDS011;2202;50.866;12.750;2022-11-22T00:04:19;23.63;;;13.80;;
4375;SDS011;2202;50.866;12.750;2022-11-22T00:06:45;22.73;;;13.77;;
4375;SDS011;2202;50.866;12.750;2022-11-22T00:09:12;22.50;;;14.63;;
4375;SDS011;2202;50.866;12.750;2022-11-22T00:11:39;23.53;;;13.00;;
4375;SDS011;2202;50.866;12.750;2022-11-22T00:14:06;18.57;;;12.43;;
4375;SDS011;2202;50.866;12.750;2022-11-22T00:16:33;20.50;;;12.80;;
4375;SDS011;2202;50.866;12.750;2022-11-22T00:19:00;19.30;;;12.80;;
4375;SDS011;2202;50.866;12.750;2022-11-22T00:21:28;17.67;;;11.53;;
4375;SDS011;2202;50.866;12.750;2022-11-22T00:23:55;22.07;;;13.47;;
4375;SDS011;2202;50.866;12.750;2022-11-22T00:26:22;26.50;;;12.37;;
4375;SDS011;2202;50.866;12.750;2022-11-22T00:28:48;20.47;;;11.10;;
4375;SDS011;2202;50.866;12.750;2022-11-22T00:31:15;18.17;;;10.67;;
4375;SDS011;2202;50.866;12.750;2022-11-22T00:33:42;19.67;;;11.27;;
4375;SDS011;2202;50.866;12.750;2022-11-22T00:36:09;17.60;;;10.60;;
4375;SDS011;2202;50.866;12.750;2022-11-22T00:38:37;16.70;;;10.97;;
4375;SDS011;2202;50.866;12.750;2022-11-22T00:41:04;16.20;;;9.63;;
4375;SDS011;2202;50.866;12.750;2022-11-22T00:43:31;18.13;;;10.17;;
4375;SDS011;2202;50.866;12.750;2022-11-22T00:45:58;19.27;;;10.90;;
4375;SDS011;2202;50.866;12.750;2022-11-22T00:48:25;16.10;;;9.13;;
4375;SDS011;2202;50.866;12.750;2022-11-22T00:50:52;16.30;;;9.47;;
4375;SDS011;2202;50.866;12.750;2022-11-22T00:53:20;14.60;;;9.10;;
4375;SDS011;2202;50.866;12.750;2022-11-22T00:55:48;18.40;;;10.40;;
4375;SDS011;2202;50.866;12.750;2022-11-22T00:58:15;18.13;;;10.70;;
4375;SDS011;2202;50.866;12.750;2022-11-22T01:00:42;15.77;;;11.07;;
4375;SDS011;2202;50.866;12.750;2022-11-22T01:03:09;13.80;;;9.37;;
4375;SDS011;2202;50.866;12.750;2022-11-22T01:05:36;17.43;;;9.97;;
4375;SDS011;2202;50.866;12.750;2022-11-22T01:08:03;13.30;;;8.13;;
4375;SDS011;2202;50.866;12.750;2022-11-22T01:10:31;13.47;;;8.07;;
4375;SDS011;2202;50.866;12.750;2022-11-22T01:13:01;13.03;;;8.30;;
4375;SDS011;2202;50.866;12.750;2022-11-22T01:15:28;15.33;;;8.30;;
4375;SDS011;2202;50.866;12.750;2022-11-22T01:17:55;17.47;;;8.63;;
4375;SDS011;2202;50.866;12.750;2022-11-22T01:20:22;18.00;;;8.00;;
4375;SDS011;2202;50.866;12.750;2022-11-22T01:22:49;12.80;;;7.70;;
4375;SDS011;2202;50.866;12.750;2022-11-22T01:25:16;15.90;;;7.70;;
4375;SDS011;2202;50.866;12.750;2022-11-22T01:27:43;12.03;;;7.60;;
4375;SDS011;2202;50.866;12.750;2022-11-22T01:30:12;14.93;;;7.30;;
4375;SDS011;2202;50.866;12.750;2022-11-22T01:32:39;14.10;;;7.50;;
4375;SDS011;2202;50.866;12.750;2022-11-22T01:35:06;12.20;;;6.90;;
4375;SDS011;2202;50.866;12.750;2022-11-22T01:37:33;10.90;;;6.33;;
4375;SDS011;2202;50.866;12.750;2022-11-22T01:40:00;11.87;;;6.53;;
4375;SDS011;2202;50.866;12.750;2022-11-22T01:42:38;11.93;;;7.20;;
4375;SDS011;2202;50.866;12.750;2022-11-22T01:48:25;12.23;;;7.03;;
4375;SDS011;2202;50.866;12.750;2022-11-22T01:50:56;10.13;;;6.53;;
4375;SDS011;2202;50.866;12.750;2022-11-22T01:53:27;11.33;;;6.87;;
4375;SDS011;2202;50.866;12.750;2022-11-22T01:55:57;11.37;;;6.83;;
4375;SDS011;2202;50.866;12.750;2022-11-22T01:58:26;12.47;;;6.77;;
4375;SDS011;2202;50.866;12.750;2022-11-22T02:00:57;11.60;;;6.37;;
4375;SDS011;2202;50.866;12.750;2022-11-22T02:03:25;10.73;;;6.13;;
4375;SDS011;2202;50.866;12.750;2022-11-22T02:05:54;12.37;;;6.80;;
4375;SDS011;2202;50.866;12.750;2022-11-22T02:08:24;13.00;;;7.10;;
4375;SDS011;2202;50.866;12.750;2022-11-22T02:10:54;12.53;;;7.20;;
4375;SDS011;2202;50.866;12.750;2022-11-22T02:13:24;10.60;;;6.27;;
4375;SDS011;2202;50.866;12.750;2022-11-22T02:15:51;12.00;;;6.57;;
4375;SDS011;2202;50.866;12.750;2022-11-22T02:18:20;11.43;;;5.83;;
4375;SDS011;2202;50.866;12.750;2022-11-22T02:20:47;11.63;;;7.13;;
4375;SDS011;2202;50.866;12.750;2022-11-22T02:23:16;10.60;;;5.47;;
4375;SDS011;2202;50.866;12.750;2022-11-22T02:25:53;9.87;;;6.00;;
4375;SDS011;2202;50.866;12.750;2022-11-22T02:28:21;8.67;;;5.23;;
4375;SDS011;2202;50.866;12.750;2022-11-22T02:30:48;11.57;;;5.93;;
4375;SDS011;2202;50.866;12.750;2022-11-22T02:33:15;11.30;;;5.77;;
4375;SDS011;2202;50.866;12.750;2022-11-22T02:35:42;9.53;;;4.97;;
4375;SDS011;2202;50.866;12.750;2022-11-22T02:38:10;10.90;;;5.80;;
4375;SDS011;2202;50.866;12.750;2022-11-22T02:40:41;12.20;;;5.63;;
4375;SDS011;2202;50.866;12.750;2022-11-22T02:43:14;8.67;;;4.93;;
4375;SDS011;2202;50.866;12.750;2022-11-22T02:45:43;10.00;;;5.53;;
4375;SDS011;2202;50.866;12.750;2022-11-22T02:48:11;9.27;;;5.33;;
4375;SDS011;2202;50.866;12.750;2022-11-22T02:50:39;8.80;;;4.70;;
4375;SDS011;2202;50.866;12.750;2022-11-22T02:53:06;8.20;;;4.23;;
4375;SDS011;2202;50.866;12.750;2022-11-22T02:55:34;8.60;;;4.93;;
4375;SDS011;2202;50.866;12.750;2022-11-22T02:58:02;9.57;;;4.73;;
4375;SDS011;2202;50.866;12.750;2022-11-22T03:00:31;10.53;;;5.13;;
4375;SDS011;2202;50.866;12.750;2022-11-22T03:02:59;7.30;;;4.40;;
4375;SDS011;2202;50.866;12.750;2022-11-22T03:05:26;8.80;;;4.77;;
4375;SDS011;2202;50.866;12.750;2022-11-22T03:07:52;11.00;;;4.93;;
4375;SDS011;2202;50.866;12.750;2022-11-22T03:10:19;8.13;;;4.80;;
4375;SDS011;2202;50.866;12.750;2022-11-22T03:12:46;9.13;;;5.13;;
4375;SDS011;2202;50.866;12.750;2022-11-22T03:15:13;10.67;;;6.07;;
4375;SDS011;2202;50.866;12.750;2022-11-22T03:17:41;9.13;;;4.93;;
4375;SDS011;2202;50.866;12.750;2022-11-22T03:20:08;9.10;;;5.00;;
4375;SDS011;2202;50.866;12.750;2022-11-22T03:22:35;7.60;;;3.53;;
4375;SDS011;2202;50.866;12.750;2022-11-22T03:25:02;9.63;;;5.20;;
4375;SDS011;2202;50.866;12.750;2022-11-22T03:27:30;9.63;;;4.23;;
4375;SDS011;2202;50.866;12.750;2022-11-22T03:29:57;13.47;;;5.17;;
4375;SDS011;2202;50.866;12.750;2022-11-22T03:32:23;9.33;;;4.73;;
4375;SDS011;2202;50.866;12.750;2022-11-22T03:34:52;12.53;;;5.50;;
4375;SDS011;2202;50.866;12.750;2022-11-22T03:37:18;11.17;;;4.90;;
4375;SDS011;2202;50.866;12.750;2022-11-22T03:39:45;9.90;;;4.70;;
4375;SDS011;2202;50.866;12.750;2022-11-22T03:42:12;10.63;;;4.97;;
4375;SDS011;2202;50.866;12.750;2022-11-22T03:44:39;8.77;;;4.30;;
4375;SDS011;2202;50.866;12.750;2022-11-22T03:47:06;10.27;;;5.40;;
4375;SDS011;2202;50.866;12.750;2022-11-22T03:49:32;7.77;;;4.73;;
4375;SDS011;2202;50.866;12.750;2022-11-22T03:52:01;8.77;;;4.63;;
4375;SDS011;2202;50.866;12.750;2022-11-22T03:54:27;10.80;;;5.07;;
4375;SDS011;2202;50.866;12.750;2022-11-22T03:56:54;11.07;;;4.83;;
4375;SDS011;2202;50.866;12.750;2022-11-22T03:59:21;7.90;;;4.73;;
4375;SDS011;2202;50.866;12.750;2022-11-22T04:01:48;8.47;;;5.13;;
4375;SDS011;2202;50.866;12.750;2022-11-22T04:04:15;8.80;;;4.80;;
4375;SDS011;2202;50.866;12.750;2022-11-22T04:06:42;8.90;;;4.73;;
4375;SDS011;2202;50.866;12.750;2022-11-22T04:09:10;9.67;;;4.83;;
4375;SDS011;2202;50.866;12.750;2022-11-22T04:11:37;8.10;;;4.50;;
4375;SDS011;2202;50.866;12.750;2022-11-22T04:14:08;11.80;;;5.10;;
4375;SDS011;2202;50.866;12.750;2022-11-22T04:16:53;12.30;;;4.90;;
4375;SDS011;2202;50.866;12.750;2022-11-22T04:19:20;8.47;;;4.40;;
4375;SDS011;2202;50.866;12.750;2022-11-22T04:21:47;8.80;;;4.67;;
4375;SDS011;2202;50.866;12.750;2022-11-22T04:24:14;8.90;;;4.60;;
4375;SDS011;2202;50.866;12.750;2022-11-22T04:26:58;10.00;;;4.20;;
4375;SDS011;2202;50.866;12.750;2022-11-22T04:29:25;7.20;;;3.87;;
4375;SDS011;2202;50.866;12.750;2022-11-22T04:31:52;8.70;;;4.87;;
4375;SDS011;2202;50.866;12.750;2022-11-22T04:34:37;11.17;;;5.00;;
4375;SDS011;2202;50.866;12.750;2022-11-22T04:37:04;7.90;;;4.40;;
4375;SDS011;2202;50.866;12.750;2022-11-22T04:39:32;8.10;;;4.37;;
4375;SDS011;2202;50.866;12.750;2022-11-22T04:41:59;8.07;;;4.43;;
4375;SDS011;2202;50.866;12.750;2022-11-22T04:44:44;11.20;;;4.23;;
4375;SDS011;2202;50.866;12.750;2022-11-22T04:47:11;7.67;;;4.37;;
4375;SDS011;2202;50.866;12.750;2022-11-22T04:50:02;8.17;;;4.23;;
4375;SDS011;2202;50.866;12.750;2022-11-22T04:52:51;8.40;;;3.90;;
4375;SDS011;2202;50.866;12.750;2022-11-22T04:55:19;9.73;;;5.00;;
4375;SDS011;2202;50.866;12.750;2022-11-22T04:57:46;7.60;;;3.67;;
4375;SDS011;2202;50.866;12.750;2022-11-22T05:00:13;7.60;;;4.20;;
4375;SDS011;2202;50.866;12.750;2022-11-22T05:02:40;10.00;;;4.73;;
4375;SDS011;2202;50.866;12.750;2022-11-22T05:05:08;9.20;;;4.60;;
4375;SDS011;2202;50.866;12.750;2022-11-22T05:07:35;11.27;;;4.80;;
4375;SDS011;2202;50.866;12.750;2022-11-22T05:10:02;8.83;;;4.30;;
4375;SDS011;2202;50.866;12.750;2022-11-22T05:12:30;11.07;;;5.10;;
4375;SDS011;2202;50.866;12.750;2022-11-22T05:14:57;9.10;;;4.40;;
4375;SDS011;2202;50.866;12.750;2022-11-22T05:17:24;11.77;;;4.53;;
4375;SDS011;2202;50.866;12.750;2022-11-22T05:19:51;18.03;;;8.83;;
4375;SDS011;2202;50.866;12.750;2022-11-22T05:22:18;11.27;;;5.67;;
4375;SDS011;2202;50.866;12.750;2022-11-22T05:25:05;9.00;;;5.03;;
4375;SDS011;2202;50.866;12.750;2022-11-22T05:27:33;11.63;;;4.40;;
4375;SDS011;2202;50.866;12.750;2022-11-22T05:30:00;8.77;;;4.47;;
4375;SDS011;2202;50.866;12.750;2022-11-22T05:32:28;8.13;;;5.03;;
4375;SDS011;2202;50.866;12.750;2022-11-22T05:34:55;11.10;;;5.23;;
4375;SDS011;2202;50.866;12.750;2022-11-22T05:37:22;9.30;;;4.93;;
4375;SDS011;2202;50.866;12.750;2022-11-22T05:39:49;13.90;;;5.33;;
4375;SDS011;2202;50.866;12.750;2022-11-22T05:42:16;9.73;;;4.73;;
4375;SDS011;2202;50.866;12.750;2022-11-22T05:44:44;11.03;;;6.10;;
4375;SDS011;2202;50.866;12.750;2022-11-22T05:47:11;12.10;;;6.00;;
4375;SDS011;2202;50.866;12.750;2022-11-22T05:49:38;13.07;;;6.10;;
4375;SDS011;2202;50.866;12.750;2022-11-22T05:52:05;9.17;;;5.83;;
4375;SDS011;2202;50.866;12.750;2022-11-22T05:54:32;10.10;;;5.63;;
4375;SDS011;2202;50.866;12.750;2022-11-22T05:56:59;10.27;;;6.17;;
4375;SDS011;2202;50.866;12.750;2022-11-22T05:59:26;13.37;;;7.20;;
4375;SDS011;2202;50.866;12.750;2022-11-22T06:01:54;16.97;;;8.50;;
4375;SDS011;2202;50.866;12.750;2022-11-22T06:04:21;11.97;;;8.23;;
4375;SDS011;2202;50.866;12.750;2022-11-22T06:06:48;19.77;;;8.37;;
4375;SDS011;2202;50.866;12.750;2022-11-22T06:09:15;15.13;;;8.33;;
4375;SDS011;2202;50.866;12.750;2022-11-22T06:11:42;14.63;;;8.40;;
4375;SDS011;2202;50.866;12.750;2022-11-22T06:14:08;15.33;;;7.87;;
4375;SDS011;2202;50.866;12.750;2022-11-22T06:16:35;15.80;;;8.30;;
4375;SDS011;2202;50.866;12.750;2022-11-22T06:19:03;12.40;;;7.33;;
4375;SDS011;2202;50.866;12.750;2022-11-22T06:21:30;16.23;;;7.33;;
4375;SDS011;2202;50.866;12.750;2022-11-22T06:23:57;15.20;;;7.73;;
4375;SDS011;2202;50.866;12.750;2022-11-22T06:26:24;14.60;;;6.73;;
4375;SDS011;2202;50.866;12.750;2022-11-22T06:28:51;15.27;;;7.20;;
4375;SDS011;2202;50.866;12.750;2022-11-22T06:31:19;14.63;;;7.07;;
4375;SDS011;2202;50.866;12.750;2022-11-22T06:33:48;10.97;;;6.50;;
4375;SDS011;2202;50.866;12.750;2022-11-22T06:36:17;11.80;;;7.30;;
4375;SDS011;2202;50.866;12.750;2022-11-22T06:38:45;13.00;;;7.67;;
4375;SDS011;2202;50.866;12.750;2022-11-22T06:41:13;14.70;;;7.43;;
4375;SDS011;2202;50.866;12.750;2022-11-22T06:43:41;15.47;;;7.47;;
4375;SDS011;2202;50.866;12.750;2022-11-22T06:46:09;13.30;;;7.50;;
4375;SDS011;2202;50.866;12.750;2022-11-22T06:48:38;15.17;;;8.40;;
4375;SDS011;2202;50.866;12.750;2022-11-22T06:51:07;13.70;;;7.53;;
4375;SDS011;2202;50.866;12.750;2022-11-22T06:53:38;14.20;;;7.90;;
4375;SDS011;2202;50.866;12.750;2022-11-22T06:56:05;12.70;;;8.17;;
4375;SDS011;2202;50.866;12.750;2022-11-22T06:58:33;15.70;;;8.73;;
4375;SDS011;2202;50.866;12.750;2022-11-22T07:01:01;17.93;;;9.83;;
4375;SDS011;2202;50.866;12.750;2022-11-22T07:03:29;18.40;;;10.73;;
4375;SDS011;2202;50.866;12.750;2022-11-22T07:05:56;20.20;;;14.13;;
4375;SDS011;2202;50.866;12.750;2022-11-22T07:08:23;30.00;;;14.27;;
4375;SDS011;2202;50.866;12.750;2022-11-22T07:10:51;19.13;;;12.07;;
4375;SDS011;2202;50.866;12.750;2022-11-22T07:13:19;22.03;;;11.70;;
4375;SDS011;2202;50.866;12.750;2022-11-22T07:15:52;23.00;;;11.87;;
4375;SDS011;2202;50.866;12.750;2022-11-22T07:18:20;24.00;;;12.70;;
4375;SDS011;2202;50.866;12.750;2022-11-22T07:20:47;17.87;;;11.50;;
4375;SDS011;2202;50.866;12.750;2022-11-22T07:23:14;19.50;;;10.57;;
4375;SDS011;2202;50.866;12.750;2022-11-22T07:25:42;18.30;;;11.10;;
4375;SDS011;2202;50.866;12.750;2022-11-22T07:28:11;19.30;;;11.10;;
4375;SDS011;2202;50.866;12.750;2022-11-22T07:30:38;17.90;;;11.10;;
4375;SDS011;2202;50.866;12.750;2022-11-22T07:33:05;19.53;;;11.23;;
4375;SDS011;2202;50.866;12.750;2022-11-22T07:35:32;17.57;;;10.87;;
4375;SDS011;2202;50.866;12.750;2022-11-22T07:37:59;22.33;;;12.70;;
4375;SDS011;2202;50.866;12.750;2022-11-22T07:40:26;22.03;;;13.80;;
4375;SDS011;2202;50.866;12.750;2022-11-22T07:42:53;19.10;;;11.20;;
4375;SDS011;2202;50.866;12.750;2022-11-22T07:45:22;23.53;;;13.17;;
4375;SDS011;2202;50.866;12.750;2022-11-22T07:47:49;21.77;;;12.60;;
4375;SDS011;2202;50.866;12.750;2022-11-22T07:50:15;21.80;;;12.23;;
4375;SDS011;2202;50.866;12.750;2022-11-22T07:52:42;22.73;;;13.00;;
4375;SDS011;2202;50.866;12.750;2022-11-22T07:55:09;22.97;;;13.80;;
4375;SDS011;2202;50.866;12.750;2022-11-22T07:57:36;21.87;;;12.73;;
4375;SDS011;2202;50.866;12.750;2022-11-22T08:00:04;21.17;;;13.07;;
4375;SDS011;2202;50.866;12.750;2022-11-22T08:02:33;22.17;;;13.60;;
4375;SDS011;2202;50.866;12.750;2022-11-22T08:05:01;20.30;;;12.67;;
4375;SDS011;2202;50.866;12.750;2022-11-22T08:07:28;21.30;;;14.53;;
4375;SDS011;2202;50.866;12.750;2022-11-22T08:09:55;23.53;;;12.60;;
4375;SDS011;2202;50.866;12.750;2022-11-22T08:12:22;24.57;;;13.67;;
4375;SDS011;2202;50.866;12.750;2022-11-22T08:14:49;28.07;;;15.57;;
4375;SDS011;2202;50.866;12.750;2022-11-22T08:17:16;21.53;;;14.10;;
4375;SDS011;2202;50.866;12.750;2022-11-22T08:19:44;24.17;;;15.10;;
4375;SDS011;2202;50.866;12.750;2022-11-22T08:22:13;19.43;;;12.87;;
4375;SDS011;2202;50.866;12.750;2022-11-22T08:24:40;18.57;;;10.77;;
4375;SDS011;2202;50.866;12.750;2022-11-22T08:27:07;20.57;;;13.53;;
4375;SDS011;2202;50.866;12.750;2022-11-22T08:29:33;19.87;;;12.10;;
4375;SDS011;2202;50.866;12.750;2022-11-22T08:32:00;21.80;;;12.73;;
4375;SDS011;2202;50.866;12.750;2022-11-22T08:34:27;22.57;;;13.33;;
4375;SDS011;2202;50.866;12.750;2022-11-22T08:36:55;22.00;;;13.20;;
4375;SDS011;2202;50.866;12.750;2022-11-22T08:39:22;21.30;;;12.50;;
4375;SDS011;2202;50.866;12.750;2022-11-22T08:41:49;24.60;;;14.87;;
4375;SDS011;2202;50.866;12.750;2022-11-22T08:44:16;23.20;;;14.67;;
4375;SDS011;2202;50.866;12.750;2022-11-22T08:46:42;22.57;;;14.20;;
4375;SDS011;2202;50.866;12.750;2022-11-22T08:49:09;22.13;;;15.13;;
4375;SDS011;2202;50.866;12.750;2022-11-22T08:51:36;23.00;;;16.97;;
4375;SDS011;2202;50.866;12.750;2022-11-22T08:54:10;26.23;;;15.67;;
4375;SDS011;2202;50.866;12.750;2022-11-22T08:56:37;21.77;;;14.70;;
4375;SDS011;2202;50.866;12.750;2022-11-22T08:59:03;15.87;;;10.40;;
4375;SDS011;2202;50.866;12.750;2022-11-22T09:01:30;19.00;;;12.57;;
4375;SDS011;2202;50.866;12.750;2022-11-22T09:03:57;21.40;;;15.10;;
4375;SDS011;2202;50.866;12.750;2022-11-22T09:06:24;21.27;;;15.30;;
4375;SDS011;2202;50.866;12.750;2022-11-22T09:08:51;27.67;;;17.30;;
4375;SDS011;2202;50.866;12.750;2022-11-22T09:11:19;20.87;;;14.83;;
4375;SDS011;2202;50.866;12.750;2022-11-22T09:13:46;20.60;;;12.43;;
4375;SDS011;2202;50.866;12.750;2022-11-22T09:16:14;19.07;;;12.03;;
4375;SDS011;2202;50.866;12.750;2022-11-22T09:18:42;15.77;;;10.13;;
4375;SDS011;2202;50.866;12.750;2022-11-22T09:21:10;18.37;;;14.10;;
4375;SDS011;2202;50.866;12.750;2022-11-22T09:23:39;17.40;;;11.40;;
4375;SDS011;2202;50.866;12.750;2022-11-22T09:26:08;17.17;;;11.70;;
4375;SDS011;2202;50.866;12.750;2022-11-22T09:28:37;18.50;;;11.10;;
4375;SDS011;2202;50.866;12.750;2022-11-22T09:31:05;17.77;;;11.50;;
4375;SDS011;2202;50.866;12.750;2022-11-22T09:33:33;17.47;;;10.60;;
4375;SDS011;2202;50.866;12.750;2022-11-22T09:36:02;15.07;;;8.37;;
4375;SDS011;2202;50.866;12.750;2022-11-22T09:38:30;12.80;;;7.00;;
4375;SDS011;2202;50.866;12.750;2022-11-22T09:40:57;11.10;;;6.70;;
4375;SDS011;2202;50.866;12.750;2022-11-22T09:43:26;16.60;;;7.47;;
4375;SDS011;2202;50.866;12.750;2022-11-22T09:46:08;10.20;;;6.50;;
4375;SDS011;2202;50.866;12.750;2022-11-22T09:48:47;11.60;;;6.70;;
4375;SDS011;2202;50.866;12.750;2022-11-22T09:51:33;13.07;;;7.10;;
4375;SDS011;2202;50.866;12.750;2022-11-22T09:54:05;12.57;;;7.27;;
4375;SDS011;2202;50.866;12.750;2022-11-22T09:56:36;12.50;;;6.80;;
4375;SDS011;2202;50.866;12.750;2022-11-22T09:59:04;12.73;;;7.23;;
4375;SDS011;2202;50.866;12.750;2022-11-22T10:01:38;13.80;;;7.60;;
4375;SDS011;2202;50.866;12.750;2022-11-22T10:04:09;13.07;;;7.37;;
4375;SDS011;2202;50.866;12.750;2022-11-22T10:06:40;13.40;;;7.20;;
4375;SDS011;2202;50.866;12.750;2022-11-22T10:09:17;12.17;;;6.90;;
4375;SDS011;2202;50.866;12.750;2022-11-22T10:11:52;12.07;;;7.37;;
4375;SDS011;2202;50.866;12.750;2022-11-22T10:14:28;13.40;;;6.93;;
4375;SDS011;2202;50.866;12.750;2022-11-22T10:17:06;14.83;;;6.70;;
4375;SDS011;2202;50.866;12.750;2022-11-22T10:19:47;13.30;;;7.20;;
4375;SDS011;2202;50.866;12.750;2022-11-22T10:22:18;12.47;;;7.50;;
4375;SDS011;2202;50.866;12.750;2022-11-22T10:24:45;14.63;;;7.17;;
4375;SDS011;2202;50.866;12.750;2022-11-22T10:27:12;14.20;;;7.90;;
4375;SDS011;2202;50.866;12.750;2022-11-22T10:29:41;11.70;;;7.47;;
4375;SDS011;2202;50.866;12.750;2022-11-22T10:32:17;14.70;;;8.17;;
4375;SDS011;2202;50.866;12.750;2022-11-22T10:34:52;12.70;;;7.13;;
4375;SDS011;2202;50.866;12.750;2022-11-22T10:37:33;15.70;;;8.60;;
4375;SDS011;2202;50.866;12.750;2022-11-22T10:40:12;14.23;;;7.63;;
4375;SDS011;2202;50.866;12.750;2022-11-22T10:42:56;13.63;;;7.03;;
4375;SDS011;2202;50.866;12.750;2022-11-22T10:45:34;13.73;;;8.07;;
4375;SDS011;2202;50.866;12.750;2022-11-22T10:48:11;14.57;;;8.33;;
4375;SDS011;2202;50.866;12.750;2022-11-22T10:50:53;11.63;;;7.83;;
4375;SDS011;2202;50.866;12.750;2022-11-22T10:53:30;13.47;;;8.20;;
4375;SDS011;2202;50.866;12.750;2022-11-22T10:56:09;14.70;;;8.20;;
4375;SDS011;2202;50.866;12.750;2022-11-22T10:58:44;13.70;;;8.23;;
4375;SDS011;2202;50.866;12.750;2022-11-22T11:01:25;15.90;;;8.30;;
4375;SDS011;2202;50.866;12.750;2022-11-22T11:03:59;13.97;;;7.57;;
4375;SDS011;2202;50.866;12.750;2022-11-22T11:06:29;15.37;;;8.50;;
4375;SDS011;2202;50.866;12.750;2022-11-22T11:09:02;19.50;;;8.87;;
4375;SDS011;2202;50.866;12.750;2022-11-22T11:11:33;15.30;;;8.50;;
4375;SDS011;2202;50.866;12.750;2022-11-22T11:14:05;13.83;;;8.83;;
4375;SDS011;2202;50.866;12.750;2022-11-22T11:16:37;25.70;;;15.57;;
4375;SDS011;2202;50.866;12.750;2022-11-22T11:19:10;16.13;;;9.17;;
4375;SDS011;2202;50.866;12.750;2022-11-22T11:21:42;15.77;;;9.03;;
4375;SDS011;2202;50.866;12.750;2022-11-22T11:24:11;14.50;;;8.57;;
4375;SDS011;2202;50.866;12.750;2022-11-22T11:26:39;15.90;;;9.60;;
4375;SDS011;2202;50.866;12.750;2022-11-22T11:29:27;19.20;;;10.93;;
4375;SDS011;2202;50.866;12.750;2022-11-22T11:32:07;19.70;;;10.30;;
4375;SDS011;2202;50.866;12.750;2022-11-22T11:34:40;21.10;;;11.50;;
4375;SDS011;2202;50.866;12.750;2022-11-22T11:37:17;15.50;;;9.60;;
4375;SDS011;2202;50.866;12.750;2022-11-22T11:39:48;13.83;;;8.50;;
4375;SDS011;2202;50.866;12.750;2022-11-22T11:42:22;13.77;;;9.10;;
4375;SDS011;2202;50.866;12.750;2022-11-22T11:44:50;18.50;;;9.60;;
4375;SDS011;2202;50.866;12.750;2022-11-22T11:47:17;13.90;;;8.50;;
4375;SDS011;2202;50.866;12.750;2022-11-22T11:49:50;17.33;;;11.77;;
4375;SDS011;2202;50.866;12.750;2022-11-22T11:52:18;14.57;;;8.50;;
4375;SDS011;2202;50.866;12.750;2022-11-22T11:54:48;13.20;;;7.23;;
4375;SDS011;2202;50.866;12.750;2022-11-22T11:57:18;12.30;;;8.00;;
4375;SDS011;2202;50.866;12.750;2022-11-22T11:59:47;20.07;;;12.00;;
4375;SDS011;2202;50.866;12.750;2022-11-22T12:02:16;17.37;;;11.33;;
4375;SDS011;2202;50.866;12.750;2022-11-22T12:04:47;18.40;;;12.13;;
4375;SDS011;2202;50.866;12.750;2022-11-22T12:07:18;16.77;;;10.93;;
4375;SDS011;2202;50.866;12.750;2022-11-22T12:09:49;18.57;;;11.37;;
4375;SDS011;2202;50.866;12.750;2022-11-22T12:12:29;17.80;;;9.47;;
4375;SDS011;2202;50.866;12.750;2022-11-22T12:15:05;14.20;;;8.50;;
4375;SDS011;2202;50.866;12.750;2022-11-22T12:17:42;15.40;;;8.47;;
4375;SDS011;2202;50.866;12.750;2022-11-22T12:20:17;17.23;;;9.50;;
4375;SDS011;2202;50.866;12.750;2022-11-22T12:22:49;21.80;;;11.40;;
4375;SDS011;2202;50.866;12.750;2022-11-22T12:25:30;15.80;;;9.83;;
4375;SDS011;2202;50.866;12.750;2022-11-22T12:28:01;15.43;;;8.47;;
4375;SDS011;2202;50.866;12.750;2022-11-22T12:30:36;14.50;;;8.60;;
4375;SDS011;2202;50.866;12.750;2022-11-22T12:33:06;18.63;;;8.63;;
4375;SDS011;2202;50.866;12.750;2022-11-22T12:35:41;14.33;;;8.50;;
4375;SDS011;2202;50.866;12.750;2022-11-22T12:38:10;16.37;;;10.00;;
4375;SDS011;2202;50.866;12.750;2022-11-22T12:40:41;14.70;;;9.20;;
4375;SDS011;2202;50.866;12.750;2022-11-22T12:43:10;14.43;;;9.37;;
4375;SDS011;2202;50.866;12.750;2022-11-22T12:45:43;15.97;;;9.20;;
4375;SDS011;2202;50.866;12.750;2022-11-22T12:48:15;17.10;;;10.50;;
4375;SDS011;2202;50.866;12.750;2022-11-22T12:50:47;15.63;;;10.57;;
4375;SDS011;2202;50.866;12.750;2022-11-22T12:53:18;14.03;;;9.30;;
4375;SDS011;2202;50.866;12.750;2022-11-22T12:55:50;16.43;;;9.60;;
4375;SDS011;2202;50.866;12.750;2022-11-22T12:58:23;16.50;;;10.80;;
4375;SDS011;2202;50.866;12.750;2022-11-22T13:00:59;15.10;;;9.43;;
4375;SDS011;2202;50.866;12.750;2022-11-22T13:03:35;15.87;;;8.57;;
4375;SDS011;2202;50.866;12.750;2022-11-22T13:06:06;25.03;;;13.53;;
4375;SDS011;2202;50.866;12.750;2022-11-22T13:08:36;13.80;;;8.50;;
4375;SDS011;2202;50.866;12.750;2022-11-22T13:11:10;16.77;;;9.83;;
4375;SDS011;2202;50.866;12.750;2022-11-22T13:13:42;13.07;;;8.90;;
4375;SDS011;2202;50.866;12.750;2022-11-22T13:16:12;15.90;;;8.67;;
4375;SDS011;2202;50.866;12.750;2022-11-22T13:18:40;14.17;;;8.63;;
4375;SDS011;2202;50.866;12.750;2022-11-22T13:21:15;15.40;;;9.20;;
4375;SDS011;2202;50.866;12.750;2022-11-22T13:23:52;13.60;;;8.90;;
4375;SDS011;2202;50.866;12.750;2022-11-22T13:26:28;15.60;;;8.83;;
4375;SDS011;2202;50.866;12.750;2022-11-22T13:29:03;15.07;;;8.60;;
4375;SDS011;2202;50.866;12.750;2022-11-22T13:31:36;13.10;;;8.17;;
4375;SDS011;2202;50.866;12.750;2022-11-22T13:34:03;15.00;;;8.50;;
4375;SDS011;2202;50.866;12.750;2022-11-22T13:36:48;18.60;;;10.30;;
4375;SDS011;2202;50.866;12.750;2022-11-22T13:39:16;13.00;;;8.53;;
4375;SDS011;2202;50.866;12.750;2022-11-22T13:41:49;15.93;;;10.10;;
4375;SDS011;2202;50.866;12.750;2022-11-22T13:44:24;15.10;;;8.73;;
4375;SDS011;2202;50.866;12.750;2022-11-22T13:53:21;12.73;;;8.03;;
4375;SDS011;2202;50.866;12.750;2022-11-22T13:55:50;14.17;;;8.40;;
4375;SDS011;2202;50.866;12.750;2022-11-22T14:04:36;15.70;;;8.33;;
4375;SDS011;2202;50.866;12.750;2022-11-22T14:07:05;17.40;;;10.23;;
4375;SDS011;2202;50.866;12.750;2022-11-22T14:09:53;13.67;;;8.27;;
4375;SDS011;2202;50.866;12.750;2022-11-22T14:15:36;15.57;;;8.43;;
4375;SDS011;2202;50.866;12.750;2022-11-22T14:18:22;14.63;;;9.10;;
4375;SDS011;2202;50.866;12.750;2022-11-22T14:21:08;15.60;;;9.07;;
4375;SDS011;2202;50.866;12.750;2022-11-22T14:23:57;13.63;;;8.70;;
4375;SDS011;2202;50.866;12.750;2022-11-22T14:26:32;19.40;;;10.00;;
4375;SDS011;2202;50.866;12.750;2022-11-22T14:32:12;15.97;;;9.33;;
4375;SDS011;2202;50.866;12.750;2022-11-22T14:37:45;15.27;;;8.60;;
4375;SDS011;2202;50.866;12.750;2022-11-22T14:40:31;14.87;;;8.10;;
4375;SDS011;2202;50.866;12.750;2022-11-22T14:43:17;13.10;;;8.40;;
4375;SDS011;2202;50.866;12.750;2022-11-22T14:45:50;16.43;;;9.40;;
4375;SDS011;2202;50.866;12.750;2022-11-22T14:48:19;15.83;;;10.00;;
4375;SDS011;2202;50.866;12.750;2022-11-22T14:50:50;15.00;;;8.70;;
4375;SDS011;2202;50.866;12.750;2022-11-22T14:53:26;14.10;;;9.27;;
4375;SDS011;2202;50.866;12.750;2022-11-22T14:56:01;15.83;;;8.20;;
4375;SDS011;2202;50.866;12.750;2022-11-22T14:58:32;14.97;;;10.33;;
4375;SDS011;2202;50.866;12.750;2022-11-22T15:01:10;15.53;;;9.67;;
4375;SDS011;2202;50.866;12.750;2022-11-22T15:06:49;15.60;;;9.03;;
4375;SDS011;2202;50.866;12.750;2022-11-22T15:12:37;15.23;;;7.97;;
4375;SDS011;2202;50.866;12.750;2022-11-22T15:15:28;20.63;;;8.80;;
4375;SDS011;2202;50.866;12.750;2022-11-22T15:18:05;13.40;;;7.57;;
4375;SDS011;2202;50.866;12.750;2022-11-22T15:20:39;15.13;;;7.77;;
4375;SDS011;2202;50.866;12.750;2022-11-22T15:23:14;14.23;;;7.83;;
4375;SDS011;2202;50.866;12.750;2022-11-22T15:25:43;12.33;;;7.63;;
4375;SDS011;2202;50.866;12.750;2022-11-22T15:28:11;15.77;;;8.40;;
4375;SDS011;2202;50.866;12.750;2022-11-22T15:30:44;23.57;;;8.80;;
4375;SDS011;2202;50.866;12.750;2022-11-22T15:33:19;15.97;;;9.60;;
4375;SDS011;2202;50.866;12.750;2022-11-22T15:36:13;14.80;;;8.00;;